首页
METAR-TAF:

METAR-TAF

机场 :

成吉思汗國際機場

乌兰巴托, 蒙古国

纬度: 47-55N, 经度: 106-52E, 海拔: 1306米

当前天气观测

该预报发布于18分钟前的17:00 UTC
风速2节,风向多变
温度 -27°C
湿度 69%
气压 1014 hPa
能見度: 4000

METAR: ZMUB 161700Z VRB01MPS 4000NW FU NSC M27/M31 Q1014 NOSIG RMK QFE653.2 68 NT

时间: 01:18 (17:18 UTC)

预报

该预报发布于6小时和38分钟前的10:40 UTC
预报有效从16日的 12点(UTC)到 17日的 18点(UTC)
风速4节,风向多变
能見度: 6000
散云层高于10000英尺
成为
从 17日的 00点(UTC)到 17日的 02点(UTC)
能見度: 4000
成为
从 17日的 05点(UTC)到 17日的 07点(UTC)
能見度: 6000

TAF: ZMUB 161040Z 1612/1718 VRB02MPS 6000 SCT100 TNM30/1623Z TXM13/1707Z BECMG 1700/1702 4000 FU BECMG 1705/1707 6000

超过4000个机场的气象观测和天气预报(METAR&TAF报告)。

可查询的气象台以黄色和红色小点在地图上表示。

将鼠标移到小点上方,可查看气象台名称。

然后点击查看天气观测和预报。

如需切换地图:点击带黑十字的绿色按钮放大地图;点击带横线的绿色按钮缩小地图;或者点击绿色箭头查看邻近地区的地图。


METAR-TAF: